Shipu, China
Current Conditions -  °F | °C
As of 2:00 PM on Wednesday 28 Jan 2015 (Local Time) from ZSNB Reporting Station
Light Rain Light Rain  
Wind Chill: 33°   Ceiling: 2000
Heat Index: 39°   Visibility: 3mi
Dew Point: 36°   Wind: 9mph
Humidity: 87%   Direction: 320°NW
Pressure: 30.33"   Gusts: NA
Location:  29.2°N, 121.95°E
Report Text: ZSNB 280600Z 32004MPS 5000 -RA BR BKN020 04/02 Q1027 NOSIG
Loading
Personal Weather Stations






























Interactive Weather Map New forecast layout! Learn more

10-Day Weather Forecast

Advertisements
Track Severe Weather on mobile